Time;durP1;ratioP1;P1;durP2;ratioP2;P2;SDS_P1;SDS_P2;PMS_P1;PMS_P2;Temp;Humidity;BMP_temperature;BMP_pressure;BME280_temperature;BME280_humidity;BME280_pressure;Samples;Min_cycle;Max_cycle;Signal;HPM_P1;HPM_P2
2021/06/10 00:03:31;;;;;;;;;;;;;;;;;;;;;
2021/06/10 00:23:38;;;;;;;28.00;20.20;;;18.20;99.90;;;;;;4971358;28;20504;-88
2021/06/10 00:27:11;;;;;;;19.90;18.00;;;18.30;99.90;;;;;;4952959;29;21194;-89
2021/06/10 00:30:40;;;;;;;20.97;18.77;;;18.10;99.90;;;;;;4957344;28;20470;-88
2021/06/10 00:37:06;;;;;;;18.00;16.40;;;18.10;99.90;;;;;;4907155;28;20459;-88
2021/06/10 00:40:32;;;;;;;20.17;18.30;;;18.00;99.90;;;;;;5028864;28;20483;-89
2021/06/10 00:43:49;;;;;;;;;;;;;;;;;;;;;
2021/06/10 01:04:03;;;;;;;19.20;17.47;;;18.00;99.90;;;;;;4954830;28;20491;-89
2021/06/10 01:10:37;;;;;;;18.27;16.57;;;17.90;99.90;;;;;;4975637;28;20452;-88
2021/06/10 01:17:17;;;;;;;18.70;17.00;;;17.90;99.90;;;;;;5032076;28;20440;-88
2021/06/10 01:20:12;;;;;;;18.47;16.67;;;17.90;99.90;;;;;;5060756;28;20455;-88
2021/06/10 01:27:09;;;;;;;21.00;19.20;;;17.90;99.90;;;;;;5048587;28;20433;-88
2021/06/10 01:36:52;;;;;;;24.83;22.53;;;17.70;99.90;;;;;;5053925;28;20457;-87
2021/06/10 01:40:11;;;;;;;;;;;;;;;;;;;;;
2021/06/10 01:46:46;;;;;;;20.13;18.33;;;17.60;99.90;;;;;;4988791;28;20447;-88
2021/06/10 01:49:45;;;;;;;24.03;21.53;;;17.60;99.90;;;;;;5045207;28;20900;-88
2021/06/10 01:55:53;;;;;;;21.47;19.53;;;17.40;99.90;;;;;;5023524;28;20472;-88
2021/06/10 01:59:02;;;;;;;20.33;18.43;;;17.40;99.90;;;;;;4988908;28;20480;-88
2021/06/10 02:02:11;;;;;;;;;;;;;;;;;;;;;
2021/06/10 02:22:50;;;;;;;26.53;23.83;;;17.20;99.90;;;;;;4934439;28;20521;-88
2021/06/10 02:32:09;;;;;;;30.17;25.43;;;17.10;99.90;;;;;;4963948;28;20455;-88
2021/06/10 02:55:23;;;;;;;28.03;25.20;;;16.90;99.90;;;;;;5012252;28;20431;-88
2021/06/10 03:01:44;;;;;;;29.03;26.03;;;16.90;99.90;;;;;;4978420;28;20519;-88
2021/06/10 03:04:41;;;;;;;30.90;27.60;;;16.80;99.90;;;;;;5004708;28;20519;-89
2021/06/10 03:08:01;;;;;;;30.30;26.80;;;16.80;99.90;;;;;;5003459;28;20425;-89
2021/06/10 03:11:06;;;;;;;31.30;28.03;;;16.80;99.90;;;;;;5017762;28;20478;-88
2021/06/10 03:14:05;;;;;;;29.67;26.57;;;16.80;99.90;;;;;;5074610;28;20935;-87
2021/06/10 03:17:18;;;;;;;31.23;28.30;;;16.80;99.90;;;;;;5030038;28;20452;-88
2021/06/10 03:23:15;;;;;;;34.70;31.10;;;16.70;99.90;;;;;;5034977;28;20577;-88
2021/06/10 03:25:49;;;;;;;37.00;31.17;;;16.70;99.90;;;;;;5064661;28;20455;-88
2021/06/10 03:32:35;;;;;;;37.73;33.83;;;16.70;99.90;;;;;;5039714;28;20439;-88
2021/06/10 03:35:37;;;;;;;44.70;36.83;;;16.70;99.90;;;;;;5071578;28;20957;-88
2021/06/10 03:42:02;;;;;;;40.33;33.33;;;16.70;99.90;;;;;;5052884;28;20494;-87
2021/06/10 03:47:52;;;;;;;36.50;31.03;;;16.60;99.90;;;;;;5053709;28;20535;-87
2021/06/10 03:53:46;;;;;;;35.17;31.47;;;16.60;99.90;;;;;;5063302;28;20464;-88
2021/06/10 03:56:28;;;;;;;34.87;31.23;;;16.60;99.90;;;;;;5060810;28;21039;-88
2021/06/10 04:02:22;;;;;;;34.70;31.20;;;16.60;99.90;;;;;;5082460;22;20475;-89
2021/06/10 04:04:48;;;;;;;34.30;30.70;;;16.60;99.90;;;;;;5115094;28;20437;-89
2021/06/10 04:07:16;;;;;;;34.00;30.30;;;16.70;99.90;;;;;;5116074;28;20540;-89
2021/06/10 04:09:43;;;;;;;30.70;27.50;;;16.70;99.90;;;;;;5131124;28;20411;-89
2021/06/10 04:12:09;;;;;;;30.10;27.10;;;16.70;99.90;;;;;;5125651;28;20472;-89
2021/06/10 04:14:35;;;;;;;27.87;25.03;;;16.70;99.90;;;;;;5115537;28;20474;-89
2021/06/10 04:17:02;;;;;;;30.57;27.10;;;16.60;99.90;;;;;;5114742;28;20526;-89
2021/06/10 04:19:28;;;;;;;27.23;24.67;;;16.60;99.90;;;;;;5115020;28;20483;-89
2021/06/10 04:21:54;;;;;;;29.90;27.10;;;16.70;99.90;;;;;;5114511;28;20513;-90
2021/06/10 04:24:22;;;;;;;29.50;26.53;;;16.60;99.90;;;;;;5115790;28;20446;-89
2021/06/10 04:26:49;;;;;;;29.73;26.53;;;16.60;99.90;;;;;;5124292;28;20445;-90
2021/06/10 04:29:15;;;;;;;28.03;25.27;;;16.70;99.90;;;;;;5124098;28;20499;-90
2021/06/10 04:31:42;;;;;;;28.30;25.43;;;16.70;99.90;;;;;;5119981;28;20477;-89
2021/06/10 04:34:08;;;;;;;29.63;26.83;;;16.70;99.90;;;;;;5119755;28;20457;-89
2021/06/10 04:36:34;;;;;;;26.03;23.33;;;16.70;99.90;;;;;;5133524;28;20426;-89
2021/06/10 04:39:00;;;;;;;27.47;24.93;;;16.70;99.90;;;;;;5140076;28;20441;-89
2021/06/10 04:41:28;;;;;;;29.13;26.40;;;16.70;99.90;;;;;;5138580;27;20438;-90
2021/06/10 04:43:54;;;;;;;27.50;24.80;;;16.60;99.90;;;;;;5136856;28;20425;-86
2021/06/10 04:46:21;;;;;;;29.67;26.73;;;16.60;99.90;;;;;;5132841;27;20551;-88
2021/06/10 04:48:47;;;;;;;26.13;23.50;;;16.70;99.90;;;;;;5120646;28;20511;-88
2021/06/10 04:51:13;;;;;;;27.97;25.10;;;16.70;99.90;;;;;;5119681;28;20517;-87
2021/06/10 04:53:41;;;;;;;25.97;23.47;;;16.70;99.90;;;;;;5119115;28;20450;-88
2021/06/10 04:56:08;;;;;;;27.03;24.37;;;16.80;99.90;;;;;;5124385;28;20499;-89
2021/06/10 04:58:35;;;;;;;27.53;24.90;;;16.80;99.90;;;;;;5116969;28;20471;-90
2021/06/10 05:01:01;;;;;;;26.60;24.00;;;16.80;99.90;;;;;;5120022;28;20541;-89
2021/06/10 05:03:28;;;;;;;26.37;23.77;;;16.80;99.90;;;;;;5121387;28;20493;-89
2021/06/10 05:05:54;;;;;;;26.20;23.70;;;16.90;99.90;;;;;;5120142;28;20449;-90
2021/06/10 05:08:20;;;;;;;29.57;22.60;;;17.00;99.90;;;;;;5128608;28;20445;-88
2021/06/10 05:10:47;;;;;;;26.10;23.50;;;17.00;99.90;;;;;;5131138;27;20526;-89
2021/06/10 05:13:13;;;;;;;27.17;24.40;;;17.00;99.90;;;;;;5138624;27;20536;-88
2021/06/10 05:15:41;;;;;;;27.80;25.00;;;17.10;99.90;;;;;;5131007;27;20442;-89
2021/06/10 05:18:07;;;;;;;26.33;23.80;;;17.10;99.90;;;;;;5124909;28;20458;-88
2021/06/10 05:20:34;;;;;;;24.97;22.67;;;17.40;99.90;;;;;;5136846;28;20526;-89
2021/06/10 05:23:00;;;;;;;22.20;20.10;;;17.80;99.90;;;;;;5116734;28;20469;-89
2021/06/10 05:25:26;;;;;;;23.30;21.07;;;18.30;99.90;;;;;;5131444;28;20414;-88
2021/06/10 05:27:53;;;;;;;22.93;20.63;;;18.90;99.90;;;;;;5131246;27;20444;-89
2021/06/10 05:30:19;;;;;;;19.60;17.90;;;19.30;99.90;;;;;;5122878;28;20875;-89
2021/06/10 05:32:47;;;;;;;20.57;18.80;;;19.70;99.90;;;;;;5134225;28;20449;-87
2021/06/10 05:35:14;;;;;;;21.40;19.50;;;20.00;99.90;;;;;;5129038;28;20435;-88
2021/06/10 05:37:40;;;;;;;22.20;20.27;;;20.20;99.90;;;;;;5113444;28;20463;-89
2021/06/10 05:40:08;;;;;;;19.80;18.03;;;20.50;99.90;;;;;;5116848;28;20453;-89
2021/06/10 05:42:34;;;;;;;17.90;16.43;;;20.60;99.90;;;;;;5118476;28;20484;-89
2021/06/10 05:45:00;;;;;;;19.20;17.60;;;20.80;99.90;;;;;;5130198;28;20423;-89
2021/06/10 05:47:27;;;;;;;19.50;17.70;;;21.20;99.90;;;;;;5140859;28;20437;-90
2021/06/10 05:49:54;;;;;;;18.87;17.03;;;21.70;99.90;;;;;;5140775;28;20416;-88
2021/06/10 05:52:21;;;;;;;18.67;17.00;;;22.00;99.90;;;;;;5141151;28;20451;-88
2021/06/10 05:54:48;;;;;;;19.07;17.37;;;22.00;99.90;;;;;;5134664;27;20541;-89
2021/06/10 05:57:14;;;;;;;18.43;16.73;;;22.20;99.90;;;;;;5127187;28;20967;-89
2021/06/10 05:59:40;;;;;;;18.10;16.30;;;22.40;99.90;;;;;;5140688;28;20432;-88
2021/06/10 06:02:08;;;;;;;18.03;16.27;;;22.90;99.90;;;;;;5140492;28;20536;-86
2021/06/10 06:04:34;;;;;;;18.63;16.93;;;23.30;99.90;;;;;;5140262;28;20438;-89
2021/06/10 06:07:01;;;;;;;17.97;16.47;;;23.70;99.90;;;;;;5131256;28;20441;-88
2021/06/10 06:09:28;;;;;;;19.10;17.30;;;24.20;99.10;;;;;;5120180;28;20475;-89
2021/06/10 06:11:56;;;;;;;16.60;15.23;;;24.20;97.80;;;;;;5118092;28;20811;-88
2021/06/10 06:14:26;;;;;;;17.17;15.57;;;24.30;97.70;;;;;;5118415;28;20942;-88
2021/06/10 06:16:52;;;;;;;18.73;17.03;;;24.40;97.30;;;;;;5116744;28;20449;-88
2021/06/10 06:19:19;;;;;;;21.73;18.83;;;24.80;96.70;;;;;;5115819;28;20473;-89
2021/06/10 06:21:47;;;;;;;18.23;16.73;;;24.90;96.10;;;;;;5117389;28;20472;-89
2021/06/10 06:24:15;;;;;;;19.83;17.03;;;25.10;95.30;;;;;;5118976;28;20451;-88
2021/06/10 06:26:42;;;;;;;16.87;15.33;;;25.00;95.40;;;;;;5114794;28;20862;-88
2021/06/10 06:29:09;;;;;;;16.53;15.03;;;25.10;95.00;;;;;;5091934;28;20451;-89
2021/06/10 06:31:37;;;;;;;17.73;15.97;;;25.30;94.60;;;;;;5097251;28;20477;-88
2021/06/10 06:34:04;;;;;;;17.47;15.93;;;25.60;94.10;;;;;;5096576;28;20446;-88
2021/06/10 06:36:33;;;;;;;20.40;16.43;;;25.90;93.60;;;;;;5103482;28;20437;-89
2021/06/10 06:39:00;;;;;;;17.53;16.03;;;26.10;93.00;;;;;;5117275;28;20457;-88
2021/06/10 06:50:27;;;;;;;18.33;15.93;;;26.90;91.20;;;;;;5000418;28;20898;-88
2021/06/10 06:57:16;;;;;;;15.53;14.20;;;27.20;90.50;;;;;;4985574;28;20455;-87
2021/06/10 07:00:00;;;;;;;13.30;12.00;;;27.20;89.40;;;;;;5062979;28;20442;-88
2021/06/10 07:02:55;;;;;;;15.63;14.23;;;27.50;90.00;;;;;;5074986;28;20492;-87
2021/06/10 07:06:04;;;;;;;15.57;14.17;;;27.80;88.70;;;;;;5074890;28;20451;-88
2021/06/10 07:08:31;;;;;;;12.77;11.73;;;28.50;87.40;;;;;;5065558;28;20447;-88
2021/06/10 07:10:57;;;;;;;15.60;14.30;;;28.90;85.20;;;;;;5074049;28;20448;-88
2021/06/10 07:13:25;;;;;;;14.07;12.87;;;28.90;83.10;;;;;;5076176;28;20451;-88
2021/06/10 07:15:52;;;;;;;13.50;12.07;;;29.30;82.30;;;;;;5080060;28;20500;-88
2021/06/10 07:18:19;;;;;;;13.23;12.07;;;29.80;80.70;;;;;;5079413;28;21006;-88
2021/06/10 07:20:45;;;;;;;13.87;12.57;;;29.30;80.00;;;;;;5077019;28;20443;-88
2021/06/10 07:23:13;;;;;;;14.87;13.53;;;29.90;79.30;;;;;;5078305;28;20547;-89
2021/06/10 07:25:40;;;;;;;13.43;12.10;;;30.60;77.80;;;;;;5074719;28;20535;-89
2021/06/10 07:28:06;;;;;;;13.67;12.47;;;30.30;75.90;;;;;;5076379;28;20814;-88
2021/06/10 07:30:34;;;;;;;13.23;12.03;;;30.90;75.70;;;;;;5085160;28;20480;-89
2021/06/10 07:33:01;;;;;;;21.53;19.57;;;31.20;71.60;;;;;;5083826;28;20516;-89
2021/06/10 07:35:30;;;;;;;17.67;16.20;;;31.40;70.80;;;;;;5072469;28;20450;-89
2021/06/10 07:37:56;;;;;;;14.80;13.47;;;31.40;72.30;;;;;;5074392;28;20451;-88
2021/06/10 07:40:24;;;;;;;14.40;13.13;;;31.60;70.20;;;;;;5074625;28;20471;-88
2021/06/10 07:42:50;;;;;;;14.80;13.67;;;32.00;69.60;;;;;;5086676;28;20487;-87
2021/06/10 07:45:18;;;;;;;13.90;12.60;;;32.10;67.40;;;;;;5093689;28;20442;-87
2021/06/10 07:47:44;;;;;;;12.60;11.40;;;32.10;66.00;;;;;;5077412;28;20451;-87
2021/06/10 07:50:11;;;;;;;10.63;9.83;;;32.50;64.90;;;;;;5076122;28;20459;-88
2021/06/10 07:52:38;;;;;;;13.70;12.70;;;33.20;63.30;;;;;;5074497;28;20482;-88
2021/06/10 07:55:05;;;;;;;12.60;11.53;;;33.60;59.70;;;;;;5075415;28;20470;-87
2021/06/10 07:57:33;;;;;;;13.07;11.97;;;33.50;59.60;;;;;;5083914;28;20427;-87
2021/06/10 07:59:59;;;;;;;12.47;11.37;;;32.80;60.60;;;;;;5097473;28;20439;-87
2021/06/10 08:02:26;;;;;;;11.70;10.83;;;32.70;60.30;;;;;;5090894;28;20524;-89
2021/06/10 08:04:52;;;;;;;12.90;11.70;;;32.70;60.70;;;;;;5096919;28;20427;-88
2021/06/10 08:07:19;;;;;;;13.10;12.20;;;33.10;60.20;;;;;;5096027;28;20446;-87
2021/06/10 08:09:46;;;;;;;13.93;12.73;;;32.50;60.80;;;;;;5084351;28;20446;-89
2021/06/10 08:12:12;;;;;;;13.40;12.30;;;32.60;62.00;;;;;;5081590;28;20478;-88
2021/06/10 08:14:40;;;;;;;13.73;12.70;;;32.80;60.10;;;;;;5080935;28;20512;-87
2021/06/10 08:17:06;;;;;;;13.17;12.20;;;33.10;59.50;;;;;;5082471;28;20450;-89
2021/06/10 08:19:32;;;;;;;13.87;12.70;;;33.00;59.70;;;;;;5081126;28;20447;-88
2021/06/10 08:21:59;;;;;;;13.57;12.57;;;33.50;58.90;;;;;;5079421;28;20471;-88
2021/06/10 08:24:25;;;;;;;12.37;11.47;;;33.50;58.00;;;;;;5081756;28;20433;-88
2021/06/10 08:26:51;;;;;;;15.67;14.27;;;33.90;57.70;;;;;;5096246;28;20427;-88
2021/06/10 08:29:17;;;;;;;18.23;13.30;;;34.40;56.80;;;;;;5085822;28;20459;-88
2021/06/10 08:31:46;;;;;;;12.80;11.90;;;34.60;56.50;;;;;;5079650;28;21069;-88
2021/06/10 08:34:12;;;;;;;14.77;13.70;;;35.40;55.40;;;;;;5079515;28;20844;-88
2021/06/10 08:36:39;;;;;;;13.90;12.57;;;34.90;54.50;;;;;;5079455;28;20959;-88
2021/06/10 08:39:05;;;;;;;15.00;13.90;;;34.20;55.30;;;;;;5076883;28;20447;-88
2021/06/10 08:41:33;;;;;;;13.73;12.63;;;33.70;56.40;;;;;;5076843;28;20439;-88
2021/06/10 08:44:00;;;;;;;12.47;11.47;;;33.50;56.50;;;;;;5078649;28;20479;-88
2021/06/10 08:46:27;;;;;;;13.07;11.87;;;34.40;55.70;;;;;;5082227;28;20470;-88
2021/06/10 08:48:55;;;;;;;12.27;11.30;;;35.00;54.50;;;;;;5092320;28;20440;-88
2021/06/10 08:51:24;;;;;;;12.50;11.60;;;35.80;53.20;;;;;;5088424;28;20439;-92
2021/06/10 08:53:51;;;;;;;13.27;12.33;;;36.00;52.30;;;;;;5082250;28;20447;-88
2021/06/10 08:56:18;;;;;;;11.87;10.97;;;35.90;51.90;;;;;;5095698;28;20436;-87
2021/06/10 08:58:44;;;;;;;14.30;12.83;;;36.10;51.90;;;;;;5100420;28;20502;-89
2021/06/10 09:01:15;;;;;;;13.37;12.07;;;36.20;51.80;;;;;;5090597;28;20439;-87
2021/06/10 09:03:42;;;;;;;12.80;11.90;;;36.00;51.10;;;;;;5088185;28;20503;-90
2021/06/10 09:06:16;;;;;;;13.73;12.67;;;36.30;51.20;;;;;;5083292;28;21114;-88
2021/06/10 09:08:46;;;;;;;12.33;11.37;;;36.70;49.80;;;;;;5070170;28;20650;-89
2021/06/10 09:11:16;;;;;;;12.53;11.43;;;36.80;49.00;;;;;;5057043;28;20456;-89
2021/06/10 09:20:27;;;;;;;12.30;11.30;;;36.90;49.50;;;;;;5032723;28;20472;-88
2021/06/10 09:23:27;;;;;;;12.97;11.97;;;38.00;48.30;;;;;;5075596;28;20467;-87
2021/06/10 09:27:00;;;;;;;;;;;;;;;;;;;;;
2021/06/10 09:33:12;;;;;;;11.40;10.50;;;35.70;51.10;;;;;;4902655;29;20473;-88
2021/06/10 09:35:44;;;;;;;12.60;11.60;;;37.50;49.20;;;;;;5075746;28;20432;-88
2021/06/10 09:38:55;;;;;;;13.17;11.97;;;37.70;48.00;;;;;;5099567;28;20467;-87
2021/06/10 09:50:36;;;;;;;12.87;11.90;;;40.00;43.30;;;;;;5075073;28;20471;-88
2021/06/10 09:53:30;;;;;;;13.23;12.23;;;40.00;42.40;;;;;;5078457;28;20516;-88
2021/06/10 09:56:13;;;;;;;11.77;10.90;;;39.00;43.80;;;;;;5075781;28;20846;-88
2021/06/10 09:59:44;;;;;;;14.40;13.40;;;38.50;44.40;;;;;;5076826;28;20465;-89
2021/06/10 10:02:21;;;;;;;12.43;11.43;;;38.60;45.10;;;;;;5094236;22;20522;-91
2021/06/10 10:05:12;;;;;;;13.27;12.37;;;39.70;44.20;;;;;;5109063;28;20815;-89
2021/06/10 10:07:38;;;;;;;12.13;10.93;;;40.10;42.60;;;;;;5098289;28;20438;-90
2021/06/10 10:10:07;;;;;;;13.37;12.40;;;40.70;41.90;;;;;;5117503;28;20438;-90
2021/06/10 10:12:33;;;;;;;12.43;11.43;;;40.10;42.00;;;;;;5119822;28;20927;-90
2021/06/10 10:15:02;;;;;;;14.57;13.57;;;39.90;42.70;;;;;;5118792;28;20456;-90
2021/06/10 10:17:28;;;;;;;12.07;11.27;;;40.10;42.30;;;;;;5117965;28;20474;-89
2021/06/10 10:19:56;;;;;;;14.43;13.23;;;39.50;42.60;;;;;;5118298;28;20862;-89
2021/06/10 10:22:23;;;;;;;14.37;13.27;;;38.80;44.00;;;;;;5118769;28;20477;-89
2021/06/10 10:24:53;;;;;;;16.30;15.20;;;39.60;42.70;;;;;;5117800;28;20448;-88
2021/06/10 10:27:19;;;;;;;17.57;15.93;;;38.70;43.40;;;;;;5136121;28;20449;-89
2021/06/10 10:29:48;;;;;;;16.47;15.40;;;38.90;43.80;;;;;;5131906;28;20438;-87
2021/06/10 10:32:20;;;;;;;16.87;15.77;;;38.60;43.80;;;;;;5131399;28;20472;-87
2021/06/10 10:34:47;;;;;;;17.67;16.17;;;38.70;43.60;;;;;;5135940;28;20422;-89
2021/06/10 10:37:18;;;;;;;15.73;14.67;;;37.40;43.30;;;;;;5134382;28;20441;-88
2021/06/10 10:39:45;;;;;;;16.93;15.80;;;36.90;45.70;;;;;;5115983;28;20473;-87
2021/06/10 10:42:29;;;;;;;16.47;15.20;;;38.00;44.60;;;;;;5130042;28;20437;-88
2021/06/10 10:45:19;;;;;;;15.53;14.53;;;39.30;44.00;;;;;;5136603;28;20473;-91
2021/06/10 10:47:56;;;;;;;14.30;13.20;;;40.00;41.90;;;;;;5121891;28;20418;-90
2021/06/10 10:50:37;;;;;;;14.73;13.73;;;40.90;41.50;;;;;;5121639;28;20445;-89
2021/06/10 10:53:07;;;;;;;15.37;14.30;;;41.50;40.30;;;;;;5122292;28;20476;-90
2021/06/10 10:55:34;;;;;;;15.50;14.40;;;42.50;38.80;;;;;;5130757;28;20437;-89
2021/06/10 10:58:03;;;;;;;14.47;13.47;;;41.80;37.50;;;;;;5117967;28;20783;-89
2021/06/10 11:00:48;;;;;;;15.47;14.10;;;40.60;38.60;;;;;;5124278;28;20441;-89
2021/06/10 11:03:26;;;;;;;13.73;12.70;;;40.70;40.20;;;;;;5131840;28;20826;-90
2021/06/10 11:05:53;;;;;;;13.77;12.87;;;41.20;38.40;;;;;;5131182;28;20441;-88
2021/06/10 11:08:22;;;;;;;12.30;11.50;;;41.40;37.90;;;;;;5129464;28;20521;-89
2021/06/10 11:11:09;;;;;;;13.47;12.23;;;41.70;36.80;;;;;;5126538;28;20471;-89
2021/06/10 11:13:49;;;;;;;13.30;12.40;;;42.60;36.50;;;;;;5122840;28;20842;-89
2021/06/10 11:16:16;;;;;;;14.83;13.83;;;43.60;35.30;;;;;;5116148;28;20817;-89
2021/06/10 11:18:52;;;;;;;15.20;14.10;;;41.90;35.10;;;;;;5131480;28;20456;-89
2021/06/10 11:21:48;;;;;;;15.10;14.10;;;38.90;38.30;;;;;;5127114;28;20441;-88
2021/06/10 11:24:16;;;;;;;15.57;14.47;;;36.50;42.40;;;;;;5126744;28;20526;-89
2021/06/10 11:26:52;;;;;;;15.50;14.40;;;35.10;45.80;;;;;;5124526;28;20444;-88
2021/06/10 11:29:19;;;;;;;15.10;13.90;;;33.90;47.00;;;;;;5129795;28;20437;-89
2021/06/10 11:32:20;;;;;;;13.43;12.17;;;33.90;47.80;;;;;;5127733;28;20499;-89
2021/06/10 11:34:52;;;;;;;15.20;14.10;;;36.30;45.50;;;;;;5123409;28;20437;-89
2021/06/10 11:37:25;;;;;;;14.47;13.37;;;38.10;42.20;;;;;;5122634;28;20434;-88
2021/06/10 11:39:54;;;;;;;15.53;14.43;;;38.60;41.10;;;;;;5129005;28;20446;-89
2021/06/10 11:42:23;;;;;;;14.97;13.87;;;39.60;42.20;;;;;;5130443;28;20469;-89
2021/06/10 11:44:51;;;;;;;14.40;13.43;;;40.20;40.40;;;;;;5132328;28;20495;-90
2021/06/10 11:47:23;;;;;;;15.53;14.53;;;41.30;40.70;;;;;;5128081;28;20493;-89
2021/06/10 11:49:50;;;;;;;15.20;14.20;;;42.10;38.40;;;;;;5128660;28;20536;-88
2021/06/10 11:52:16;;;;;;;15.20;14.20;;;40.40;39.10;;;;;;5123641;28;20469;-90
2021/06/10 11:55:01;;;;;;;17.03;15.63;;;38.70;42.00;;;;;;5115720;28;20445;-90
2021/06/10 11:57:28;;;;;;;14.77;13.67;;;36.80;44.90;;;;;;5121130;28;20442;-90
2021/06/10 11:59:54;;;;;;;16.27;15.17;;;36.10;45.60;;;;;;5118523;28;20923;-89
2021/06/10 12:02:23;;;;;;;15.67;14.47;;;35.90;45.50;;;;;;5119730;28;20491;-88
2021/06/10 12:05:06;;;;;;;15.43;14.23;;;36.80;44.70;;;;;;5122249;28;20438;-88
2021/06/10 12:07:32;;;;;;;15.70;14.47;;;37.30;43.10;;;;;;5128328;28;20532;-88
2021/06/10 12:10:07;;;;;;;16.30;15.10;;;38.10;43.90;;;;;;5135225;28;20444;-89
2021/06/10 12:12:34;;;;;;;17.20;15.90;;;37.40;44.50;;;;;;5125916;28;20469;-88
2021/06/10 12:15:01;;;;;;;17.70;16.50;;;36.10;45.30;;;;;;5130095;28;20449;-89
2021/06/10 12:17:27;;;;;;;16.23;15.13;;;35.20;46.80;;;;;;5131261;28;20441;-89
2021/06/10 12:20:16;;;;;;;16.57;15.27;;;34.20;48.50;;;;;;5127110;28;20550;-89
2021/06/10 12:22:43;;;;;;;15.63;14.33;;;34.00;49.40;;;;;;5121096;28;20493;-87
2021/06/10 12:25:16;;;;;;;16.50;15.30;;;35.80;47.50;;;;;;5116529;28;20510;-88
2021/06/10 12:27:42;;;;;;;16.30;15.10;;;36.90;44.60;;;;;;5119815;28;20445;-88
2021/06/10 12:30:25;;;;;;;17.23;15.83;;;38.40;44.00;;;;;;5124716;28;20445;-88
2021/06/10 12:32:51;;;;;;;18.00;16.80;;;38.30;42.60;;;;;;5121744;28;20700;-89
2021/06/10 12:35:21;;;;;;;14.50;13.40;;;37.40;43.80;;;;;;5126151;28;20467;-89
2021/06/10 12:37:52;;;;;;;18.83;17.53;;;37.80;42.50;;;;;;5134908;28;20438;-89
2021/06/10 12:40:19;;;;;;;13.67;12.63;;;38.70;41.40;;;;;;5120512;28;20487;-89
2021/06/10 12:43:08;;;;;;;13.87;12.80;;;38.90;40.40;;;;;;5116005;28;20473;-89
2021/06/10 12:45:34;;;;;;;14.10;12.90;;;37.90;41.40;;;;;;5118479;28;20445;-89
2021/06/10 12:48:01;;;;;;;14.90;13.83;;;37.00;43.00;;;;;;5117860;28;20949;-90
2021/06/10 12:50:29;;;;;;;14.77;13.67;;;38.50;42.40;;;;;;5120041;28;20825;-89
2021/06/10 12:52:56;;;;;;;15.90;14.80;;;40.20;40.40;;;;;;5120734;28;20468;-89
2021/06/10 12:55:27;;;;;;;13.27;12.37;;;41.90;38.40;;;;;;5127108;28;20437;-89
2021/06/10 12:57:57;;;;;;;12.03;11.13;;;41.60;37.30;;;;;;5136403;28;20471;-89
2021/06/10 13:00:31;;;;;;;12.57;11.77;;;41.70;37.50;;;;;;5134061;28;20505;-90
2021/06/10 13:03:03;;;;;;;12.40;11.60;;;40.80;39.20;;;;;;5131550;28;20560;-89
2021/06/10 13:05:31;;;;;;;12.30;11.30;;;39.00;41.00;;;;;;5109085;28;20450;-88
2021/06/10 13:07:58;;;;;;;10.83;10.03;;;37.30;42.90;;;;;;5106463;28;20543;-88
2021/06/10 13:10:37;;;;;;;10.07;9.37;;;36.60;43.30;;;;;;5103890;28;20457;-89
2021/06/10 13:13:05;;;;;;;8.53;7.83;;;35.90;43.10;;;;;;5103619;28;20461;-89
2021/06/10 13:15:32;;;;;;;9.33;8.63;;;35.00;43.90;;;;;;5098100;28;20499;-88
2021/06/10 13:18:01;;;;;;;9.57;8.80;;;34.40;44.80;;;;;;5102947;28;20438;-90
2021/06/10 13:20:50;;;;;;;10.83;10.03;;;34.20;46.20;;;;;;5110519;28;20452;-88
2021/06/10 13:23:19;;;;;;;9.93;8.93;;;34.90;46.40;;;;;;5099303;28;20486;-88
2021/06/10 13:26:01;;;;;;;8.60;8.00;;;36.60;44.30;;;;;;5096977;28;20446;-89
2021/06/10 13:28:27;;;;;;;7.03;6.43;;;38.30;40.90;;;;;;5099365;28;20867;-89
2021/06/10 13:31:14;;;;;;;6.33;5.83;;;38.60;38.20;;;;;;5097721;28;20458;-90
2021/06/10 13:33:40;;;;;;;6.67;6.17;;;38.60;38.00;;;;;;5097207;28;20458;-89
2021/06/10 13:36:14;;;;;;;8.30;7.60;;;39.10;38.00;;;;;;5112092;28;20449;-89
2021/06/10 13:38:40;;;;;;;8.87;8.20;;;40.10;37.70;;;;;;5119015;28;20525;-90
2021/06/10 13:41:07;;;;;;;8.63;7.80;;;39.50;37.00;;;;;;5121469;28;20452;-90
2021/06/10 13:43:35;;;;;;;8.60;8.00;;;38.50;38.90;;;;;;5126662;28;20482;-91
2021/06/10 13:46:03;;;;;;;6.07;5.57;;;39.30;39.00;;;;;;5128755;28;20505;-91
2021/06/10 13:48:29;;;;;;;5.70;5.30;;;39.90;35.40;;;;;;5122450;28;20457;-89
2021/06/10 13:50:55;;;;;;;5.40;4.90;;;40.30;34.10;;;;;;5121144;28;20457;-90
2021/06/10 13:53:23;;;;;;;5.83;5.33;;;40.80;33.60;;;;;;5120607;28;20463;-91
2021/06/10 13:55:50;;;;;;;6.57;5.97;;;40.30;33.50;;;;;;5119983;28;20441;-91
2021/06/10 13:58:17;;;;;;;6.43;5.93;;;39.90;34.10;;;;;;5120104;28;20442;-91
2021/06/10 14:00:43;;;;;;;5.67;5.20;;;40.30;34.10;;;;;;5118654;28;20454;-90
2021/06/10 14:03:09;;;;;;;5.97;5.47;;;40.20;33.70;;;;;;5123386;28;20485;-90
2021/06/10 14:05:36;;;;;;;6.00;5.50;;;38.50;33.90;;;;;;5126087;28;20430;-89
2021/06/10 14:08:02;;;;;;;7.00;6.40;;;36.90;37.00;;;;;;5122474;28;20449;-90
2021/06/10 14:10:30;;;;;;;7.10;6.60;;;34.90;38.10;;;;;;5120551;28;20451;-89
2021/06/10 14:12:57;;;;;;;7.97;7.27;;;34.70;40.50;;;;;;5122253;28;20469;-90
2021/06/10 14:15:23;;;;;;;8.23;7.53;;;34.40;41.00;;;;;;5121464;28;20453;-90
2021/06/10 14:17:50;;;;;;;8.83;8.13;;;34.80;41.60;;;;;;5124214;28;20501;-90
2021/06/10 14:20:17;;;;;;;10.53;9.73;;;34.30;43.00;;;;;;5119891;28;20459;-90
2021/06/10 14:22:43;;;;;;;8.70;7.90;;;33.80;44.90;;;;;;5122945;28;20522;-90
2021/06/10 14:25:11;;;;;;;9.63;8.40;;;32.60;48.30;;;;;;5127402;28;20430;-88
2021/06/10 14:27:39;;;;;;;10.70;9.50;;;31.00;50.90;;;;;;5123086;28;20494;-90
2021/06/10 14:30:22;;;;;;;9.87;8.97;;;30.40;52.50;;;;;;5123875;28;20934;-90
2021/06/10 14:32:48;;;;;;;8.77;7.87;;;30.00;54.00;;;;;;5122362;28;20473;-89
2021/06/10 14:35:15;;;;;;;9.57;8.77;;;29.70;54.60;;;;;;5129198;28;20437;-88
2021/06/10 14:37:42;;;;;;;9.73;8.93;;;29.40;56.40;;;;;;5135829;28;20450;-89
2021/06/10 14:40:10;;;;;;;9.40;8.60;;;29.00;56.70;;;;;;5137491;28;20422;-90
2021/06/10 14:42:38;;;;;;;8.73;7.87;;;28.70;57.30;;;;;;5139382;28;20457;-91
2021/06/10 14:45:06;;;;;;;11.20;10.20;;;28.80;57.50;;;;;;5139536;28;20457;-92
2021/06/10 14:47:32;;;;;;;13.93;12.73;;;28.80;58.10;;;;;;5137849;28;20440;-89
2021/06/10 14:49:59;;;;;;;15.67;14.37;;;28.90;60.50;;;;;;5139187;28;20442;-90
2021/06/10 14:52:25;;;;;;;15.70;14.10;;;29.00;61.00;;;;;;5136927;28;20461;-89
2021/06/10 14:54:53;;;;;;;15.17;14.07;;;29.10;61.10;;;;;;5135189;28;20505;-90
2021/06/10 14:57:19;;;;;;;15.73;14.53;;;29.10;61.80;;;;;;5130222;28;20944;-88
2021/06/10 14:59:47;;;;;;;17.00;15.70;;;29.10;62.70;;;;;;5126143;28;20430;-90
2021/06/10 15:02:14;;;;;;;16.93;15.40;;;29.20;62.90;;;;;;5126311;28;20470;-89
2021/06/10 15:04:40;;;;;;;18.30;16.80;;;29.20;62.20;;;;;;5121725;28;20577;-89
2021/06/10 15:07:06;;;;;;;13.60;12.67;;;29.20;60.20;;;;;;5118810;28;20454;-89
2021/06/10 15:09:32;;;;;;;13.50;12.40;;;29.30;60.70;;;;;;5122678;28;20456;-89
2021/06/10 15:11:59;;;;;;;14.23;13.13;;;29.30;61.00;;;;;;5121963;28;20462;-90
2021/06/10 15:14:25;;;;;;;13.80;12.70;;;29.40;61.00;;;;;;5118634;28;20441;-89
2021/06/10 15:16:53;;;;;;;15.87;14.53;;;29.50;60.50;;;;;;5117387;28;20441;-89
2021/06/10 15:19:19;;;;;;;14.03;12.90;;;29.50;61.00;;;;;;5117352;28;20449;-90
2021/06/10 15:21:45;;;;;;;14.50;13.40;;;29.20;61.30;;;;;;5116905;28;20448;-89
2021/06/10 15:24:11;;;;;;;9.87;9.13;;;29.30;61.80;;;;;;5117650;28;20492;-89
2021/06/10 15:26:38;;;;;;;9.30;8.60;;;28.80;58.80;;;;;;5117286;28;20453;-89
2021/06/10 15:29:04;;;;;;;8.17;7.40;;;28.50;58.00;;;;;;5116950;28;20448;-89
2021/06/10 15:31:31;;;;;;;8.37;7.57;;;27.70;58.50;;;;;;5120290;28;20476;-88
2021/06/10 15:33:59;;;;;;;7.50;6.90;;;27.10;58.60;;;;;;5121266;28;20476;-89
2021/06/10 15:36:25;;;;;;;7.83;7.07;;;26.60;59.80;;;;;;5117367;28;20448;-89
2021/06/10 15:38:51;;;;;;;7.03;6.43;;;26.30;60.50;;;;;;5115798;28;20835;-89
2021/06/10 15:41:18;;;;;;;7.40;6.80;;;26.00;61.20;;;;;;5118893;28;20876;-90
2021/06/10 15:43:44;;;;;;;7.93;7.17;;;25.80;60.80;;;;;;5116884;28;20550;-89
2021/06/10 15:46:11;;;;;;;7.43;6.70;;;25.50;62.10;;;;;;5116829;28;20540;-89
2021/06/10 15:48:37;;;;;;;6.70;6.10;;;25.20;62.80;;;;;;5116234;28;20441;-90
2021/06/10 15:51:06;;;;;;;7.27;6.37;;;24.80;65.30;;;;;;5116887;28;20945;-90
2021/06/10 15:53:33;;;;;;;7.80;7.20;;;24.60;67.00;;;;;;5122519;28;20827;-90